Main page
METAR-TAF:

METAR-TAF

Airports :

Chuuk International Airport

Weno, Micronesia

latitude: 07-28N, longitude: 151-51E, elevation: 3 m

Current weather observation

The report was made 36 minutes ago, at 12:53 UTC
Wind 8 kt from the Northeast
Temperature 28°C
Humidity 79%
Pressure 1010 hPa
Visibility: 24.1 km
Few clouds at a height of 1400 ft
Scattered clouds at a height of 12000 ft
Overcast at a height of 28000 ft

METAR: PTKK 201253Z 05008KT 15SM FEW014 SCT120 OVC280 28/24 A2982 RMK SLP100 T02830243

Time: 23:29 (13:29 UTC)

Forecast

The report was made 1 hour and 59 minutes ago, at 11:30 UTC
Forecast valid from 20 at 12 UTC to 21 at 12 UTC
Wind 11 kt from the Northeast
Visibility: 10 km
Scattered clouds at a height of 1400 ft
Broken clouds at a height of 12000 ft
showers in vicinity

TAF: PTKK 201130Z 2012/2112 05011KT P6SM VCSH SCT014 BKN120

Weather observations and forecasts of more than 4000 airports (METAR and TAF reports).

The available stations are represented by yellow and red dots on the map.

Hover mouse over dot to see the name of the station.

Then click to see weather observations and forecasts.

To change the map : click on the green buttons with a black cross to zoom in, on the green button with a dash to zoom out, or on the green arrows for adjacent maps.


METAR-TAF: